createdAt,value
2018-11-13T00:01:02.247Z,10.88
2018-11-13T00:03:32.157Z,10.90
2018-11-13T00:06:02.147Z,10.89
2018-11-13T00:08:31.786Z,10.92
2018-11-13T00:11:01.363Z,10.95
2018-11-13T00:13:31.299Z,10.98
2018-11-13T00:16:00.854Z,11.00
2018-11-13T00:18:30.483Z,11.00
2018-11-13T00:21:00.665Z,11.07
2018-11-13T00:23:30.315Z,11.12
2018-11-13T00:26:00.081Z,11.14
2018-11-13T00:28:30.135Z,11.14
2018-11-13T00:30:59.668Z,11.14
2018-11-13T00:33:29.281Z,11.19
2018-11-13T00:35:59.299Z,11.26
2018-11-13T00:38:29.261Z,11.55
2018-11-13T00:40:58.898Z,11.70
2018-11-13T00:43:28.914Z,12.00
2018-11-13T00:45:58.632Z,12.52
2018-11-13T00:48:28.880Z,12.69
2018-11-13T00:50:58.399Z,12.75
2018-11-13T00:53:28.040Z,12.81
2018-11-13T00:55:57.742Z,12.74
2018-11-13T00:58:27.730Z,12.65
2018-11-13T01:00:57.446Z,12.55
2018-11-13T01:03:27.099Z,12.51
2018-11-13T01:05:56.715Z,12.47
2018-11-13T01:08:26.347Z,12.51
2018-11-13T01:10:55.998Z,12.50
2018-11-13T01:13:28.341Z,12.34
2018-11-13T01:15:57.805Z,12.24
2018-11-13T01:18:27.436Z,12.25
2018-11-13T01:20:56.996Z,12.17
2018-11-13T01:23:26.585Z,12.09
2018-11-13T01:25:56.173Z,12.04
2018-11-13T01:28:26.102Z,11.98
2018-11-13T01:30:55.746Z,11.93
2018-11-13T01:33:25.397Z,11.92
2018-11-13T01:35:54.954Z,11.84
2018-11-13T01:38:24.610Z,11.77
2018-11-13T01:40:55.170Z,11.80
2018-11-13T01:43:24.741Z,11.76
2018-11-13T01:45:54.300Z,11.71
2018-11-13T01:48:23.907Z,11.68
2018-11-13T01:50:53.552Z,11.63
2018-11-13T01:53:23.200Z,11.62
2018-11-13T01:55:53.179Z,11.61
2018-11-13T01:58:22.846Z,11.61
2018-11-13T02:00:52.504Z,11.64
2018-11-13T02:03:22.075Z,11.65
2018-11-13T02:05:53.026Z,11.65
2018-11-13T02:08:22.847Z,11.64
2018-11-13T02:10:52.507Z,11.74
2018-11-13T02:13:22.141Z,11.74
2018-11-13T02:15:51.779Z,11.79
2018-11-13T02:18:21.520Z,11.73
2018-11-13T02:20:51.642Z,11.86
2018-11-13T02:23:21.288Z,11.81
2018-11-13T02:25:50.969Z,11.77
2018-11-13T02:28:20.693Z,11.79
2018-11-13T02:30:50.293Z,11.83
2018-11-13T02:36:00.769Z,11.84
2018-11-13T02:38:30.482Z,11.85
2018-11-13T02:41:01.176Z,11.80
2018-11-13T02:43:32.123Z,11.81
2018-11-13T02:46:01.794Z,11.95
2018-11-13T02:48:31.413Z,12.02
2018-11-13T02:51:01.361Z,12.06
2018-11-13T02:53:31.066Z,12.16
2018-11-13T02:56:00.903Z,12.17
2018-11-13T02:58:31.957Z,12.13
2018-11-13T03:01:01.729Z,12.16
2018-11-13T03:03:31.440Z,12.18
2018-11-13T03:06:01.486Z,12.31
2018-11-13T03:08:31.502Z,12.19
2018-11-13T03:11:01.163Z,12.12
2018-11-13T03:13:30.845Z,12.01
2018-11-13T03:16:00.441Z,11.93
2018-11-13T03:18:31.347Z,11.88
2018-11-13T03:21:01.408Z,11.92
2018-11-13T03:23:31.100Z,11.82
2018-11-13T03:26:00.744Z,11.81
2018-11-13T03:28:30.489Z,11.76
2018-11-13T03:31:00.303Z,11.73
2018-11-13T03:33:30.109Z,11.68
2018-11-13T03:35:59.958Z,11.63
2018-11-13T03:38:29.604Z,11.66
2018-11-13T03:40:59.189Z,11.67
2018-11-13T03:43:29.075Z,11.59
2018-11-13T03:45:58.817Z,11.52
2018-11-13T03:48:28.352Z,11.45
2018-11-13T03:50:58.054Z,11.37
2018-11-13T03:53:27.972Z,11.33
2018-11-13T03:55:58.162Z,11.29
2018-11-13T03:58:27.794Z,11.29
2018-11-13T04:00:57.560Z,11.29
2018-11-13T04:03:28.589Z,11.21
2018-11-13T04:05:58.478Z,11.16
2018-11-13T04:08:28.170Z,11.13
2018-11-13T04:10:57.744Z,11.06
2018-11-13T04:13:27.380Z,11.05
2018-11-13T04:15:57.031Z,11.03
2018-11-13T04:18:26.914Z,11.03
2018-11-13T04:20:56.585Z,11.00
2018-11-13T04:23:26.190Z,11.00
2018-11-13T04:25:55.837Z,11.04
2018-11-13T04:28:25.653Z,10.98
2018-11-13T04:30:55.302Z,10.95
2018-11-13T04:33:24.956Z,10.97
2018-11-13T04:35:54.538Z,10.99
2018-11-13T04:38:24.521Z,10.97
2018-11-13T04:40:54.303Z,10.98
2018-11-13T04:43:23.904Z,11.00
2018-11-13T04:45:53.537Z,10.92
2018-11-13T04:48:23.330Z,10.90
2018-11-13T04:50:53.081Z,10.88
2018-11-13T04:53:24.035Z,10.89
2018-11-13T04:55:53.950Z,10.86
2018-11-13T04:58:23.657Z,10.85
2018-11-13T05:00:53.407Z,10.91
2018-11-13T05:03:23.302Z,10.92
2018-11-13T05:05:53.251Z,10.90
2018-11-13T05:08:22.921Z,10.89
2018-11-13T05:10:52.479Z,10.86
2018-11-13T05:13:22.367Z,10.89
2018-11-13T05:15:52.073Z,10.90
2018-11-13T05:18:21.779Z,10.90
2018-11-13T05:20:51.360Z,10.88
2018-11-13T05:23:21.307Z,10.88
2018-11-13T05:25:50.959Z,10.90
2018-11-13T05:28:20.724Z,10.89
2018-11-13T05:30:51.194Z,10.94
2018-11-13T05:33:21.039Z,11.00
2018-11-13T05:35:51.093Z,10.98
2018-11-13T05:38:25.850Z,11.01
2018-11-13T05:40:55.551Z,11.03
2018-11-13T05:43:25.261Z,11.02
2018-11-13T05:45:55.191Z,10.97
2018-11-13T05:48:25.129Z,10.99
2018-11-13T05:50:54.794Z,11.03
2018-11-13T05:53:24.546Z,11.06
2018-11-13T05:55:54.104Z,11.14
2018-11-13T05:58:23.897Z,11.17
2018-11-13T06:00:54.232Z,11.13
2018-11-13T06:03:24.254Z,11.15
2018-11-13T06:05:53.957Z,11.10
2018-11-13T06:08:23.706Z,11.15
2018-11-13T06:10:53.309Z,11.18
2018-11-13T06:13:31.584Z,11.17
2018-11-13T06:16:03.269Z,11.14
2018-11-13T06:18:36.438Z,11.12
2018-11-13T06:21:06.262Z,11.14
2018-11-13T06:23:36.187Z,11.14
2018-11-13T06:26:05.930Z,11.04
2018-11-13T06:28:35.526Z,11.02
2018-11-13T06:31:05.599Z,11.01
2018-11-13T06:33:35.515Z,10.92
2018-11-13T06:36:05.425Z,10.89
2018-11-13T06:38:35.174Z,10.92
2018-11-13T06:41:10.939Z,10.77
2018-11-13T06:43:42.493Z,10.84
2018-11-13T06:46:12.659Z,10.82
2018-11-13T06:48:51.115Z,10.78
2018-11-13T06:51:34.084Z,10.77
2018-11-13T06:54:17.627Z,10.73
2018-11-13T06:56:50.094Z,10.68
2018-11-13T06:59:39.761Z,10.70
2018-11-13T07:02:22.442Z,10.66
2018-11-13T07:04:54.278Z,10.70
2018-11-13T07:07:24.399Z,10.69
2018-11-13T07:12:50.305Z,10.64
2018-11-13T07:15:22.526Z,10.61
2018-11-13T07:17:57.275Z,10.60
2018-11-13T07:20:28.294Z,10.61
2018-11-13T07:23:05.115Z,10.61
2018-11-13T07:25:35.746Z,10.63
2018-11-13T07:28:05.840Z,10.62
2018-11-13T07:30:36.458Z,10.66
2018-11-13T07:33:07.204Z,10.66
2018-11-13T07:35:37.190Z,10.68
2018-11-13T07:38:14.039Z,10.72
2018-11-13T07:40:43.872Z,10.72
2018-11-13T07:43:13.726Z,10.73
2018-11-13T07:45:43.603Z,10.71
2018-11-13T07:48:13.932Z,10.70
2018-11-13T07:50:43.706Z,10.76
2018-11-13T07:53:14.204Z,10.79
2018-11-13T07:55:44.261Z,10.81
2018-11-13T07:58:16.297Z,10.83
2018-11-13T08:06:34.389Z,10.85
2018-11-13T08:09:05.878Z,10.89
2018-11-13T08:11:35.772Z,10.90
2018-11-13T08:14:05.818Z,10.92
2018-11-13T08:16:35.757Z,11.01
2018-11-13T08:19:10.554Z,10.95
2018-11-13T08:21:41.184Z,10.94
2018-11-13T08:24:11.107Z,10.90
2018-11-13T08:26:41.382Z,10.89
2018-11-13T08:29:11.276Z,10.88
2018-11-13T08:31:41.082Z,10.92
2018-11-13T08:34:11.301Z,10.94
2018-11-13T08:36:41.448Z,10.98
2018-11-13T08:39:17.974Z,10.92
2018-11-13T08:41:48.676Z,10.88
2018-11-13T08:44:18.870Z,10.83
2018-11-13T08:49:49.528Z,10.84
2018-11-13T08:52:21.077Z,10.80
2018-11-13T08:54:50.869Z,10.77
2018-11-13T08:57:20.639Z,10.79
2018-11-13T08:59:50.431Z,10.83
2018-11-13T09:02:20.212Z,10.83
2018-11-13T09:04:50.119Z,10.83
2018-11-13T09:07:24.153Z,10.84
2018-11-13T09:09:54.060Z,10.83
2018-11-13T09:12:24.283Z,10.84
2018-11-13T09:14:54.250Z,10.84
2018-11-13T09:17:24.203Z,10.83
2018-11-13T09:19:53.938Z,10.85
2018-11-13T09:22:23.746Z,10.88
2018-11-13T09:24:53.546Z,10.93
2018-11-13T09:27:23.340Z,10.93
2018-11-13T09:29:53.454Z,11.01
2018-11-13T09:32:23.187Z,11.04
2018-11-13T09:34:53.088Z,10.96
2018-11-13T09:37:23.173Z,10.97
2018-11-13T09:39:52.970Z,10.96
2018-11-13T09:42:26.492Z,10.94
2018-11-13T09:44:56.810Z,10.96
2018-11-13T09:47:26.598Z,10.95
2018-11-13T09:49:57.837Z,10.91
2018-11-13T09:52:27.757Z,10.91
2018-11-13T09:54:57.899Z,10.87
2018-11-13T09:57:27.660Z,10.83
2018-11-13T09:59:57.827Z,10.86
2018-11-13T10:02:28.995Z,10.82
2018-11-13T10:04:58.602Z,10.83
2018-11-13T10:07:28.964Z,10.86
2018-11-13T10:09:58.786Z,10.90
2018-11-13T10:12:29.076Z,10.92
2018-11-13T10:14:59.568Z,10.94
2018-11-13T10:17:29.361Z,10.92
2018-11-13T10:19:59.157Z,11.00
2018-11-13T10:22:28.957Z,10.99
2018-11-13T10:24:58.789Z,10.94
2018-11-13T10:27:28.607Z,10.93
2018-11-13T10:29:59.828Z,10.90
2018-11-13T10:32:29.558Z,10.86
2018-11-13T10:34:59.421Z,10.86
2018-11-13T10:37:29.204Z,10.87
2018-11-13T10:39:59.111Z,10.90
2018-11-13T10:42:28.879Z,10.91
2018-11-13T10:44:59.064Z,10.92
2018-11-13T10:47:29.864Z,10.91
2018-11-13T10:49:59.914Z,10.93
2018-11-13T10:52:29.802Z,10.99
2018-11-13T10:54:59.741Z,10.97
2018-11-13T10:57:29.986Z,10.97
2018-11-13T11:00:01.188Z,10.95
2018-11-13T11:02:36.554Z,11.06
2018-11-13T11:05:10.635Z,11.09
2018-11-13T11:07:40.845Z,11.24
2018-11-13T11:10:10.717Z,11.33
2018-11-13T11:12:40.706Z,11.39
2018-11-13T11:15:11.391Z,11.50
2018-11-13T11:17:41.423Z,11.56
2018-11-13T11:20:13.056Z,11.53
2018-11-13T11:22:42.878Z,11.55
2018-11-13T11:25:13.339Z,11.60
2018-11-13T11:27:43.067Z,11.62
2018-11-13T11:30:14.606Z,11.67
2018-11-13T11:32:44.504Z,11.65
2018-11-13T11:35:14.768Z,11.71
2018-11-13T11:37:50.008Z,11.81
2018-11-13T11:40:19.954Z,11.83
2018-11-13T11:42:52.202Z,11.78
2018-11-13T11:45:22.201Z,11.75
2018-11-13T11:47:51.954Z,11.72
2018-11-13T11:50:21.904Z,11.72
2018-11-13T11:52:52.882Z,11.74
2018-11-13T11:55:22.748Z,11.79
2018-11-13T11:57:52.835Z,11.76
2018-11-13T12:00:27.652Z,11.79
2018-11-13T12:02:57.489Z,11.79
2018-11-13T12:05:27.942Z,11.82
2018-11-13T12:07:58.031Z,11.84
2018-11-13T12:10:27.766Z,11.86
2018-11-13T12:12:57.636Z,11.92
2018-11-13T12:15:27.481Z,11.87
2018-11-13T12:17:57.682Z,11.98
2018-11-13T12:20:27.604Z,11.94
2018-11-13T12:22:57.594Z,12.01
2018-11-13T12:25:27.323Z,12.09
2018-11-13T12:27:58.511Z,12.19
2018-11-13T12:30:29.156Z,12.20
2018-11-13T12:32:58.949Z,12.25
2018-11-13T12:35:28.804Z,12.31
2018-11-13T12:37:59.148Z,12.37
2018-11-13T12:40:31.469Z,12.46
2018-11-13T12:43:01.295Z,12.49
2018-11-13T12:45:31.353Z,12.45
2018-11-13T12:48:01.339Z,12.52
2018-11-13T12:50:42.115Z,12.61
2018-11-13T12:53:14.231Z,12.65
2018-11-13T12:55:44.219Z,12.69
2018-11-13T12:58:14.383Z,12.67
2018-11-13T13:00:44.193Z,12.63
2018-11-13T13:03:14.001Z,12.69
2018-11-13T13:05:43.948Z,12.86
2018-11-13T13:08:18.664Z,12.96
2018-11-13T13:10:49.092Z,12.88
2018-11-13T13:13:18.959Z,12.84
2018-11-13T13:15:49.096Z,12.85
2018-11-13T13:18:18.938Z,12.86
2018-11-13T13:20:48.732Z,12.86
2018-11-13T13:23:18.933Z,12.92
2018-11-13T13:25:53.875Z,12.92
2018-11-13T13:28:23.835Z,13.06
2018-11-13T13:30:54.130Z,13.11
2018-11-13T13:33:24.249Z,13.18
2018-11-13T13:36:01.894Z,13.31
2018-11-13T13:38:33.287Z,13.19
2018-11-13T13:41:04.288Z,13.17
2018-11-13T13:43:34.630Z,13.23
2018-11-13T13:46:04.421Z,13.20
2018-11-13T13:48:34.203Z,13.19
2018-11-13T13:51:05.587Z,13.16
2018-11-13T13:53:35.423Z,13.05
2018-11-13T13:56:05.485Z,13.00
2018-11-13T13:58:35.227Z,13.03
2018-11-13T14:01:06.332Z,13.13
2018-11-13T14:03:36.137Z,13.16
2018-11-13T14:06:06.084Z,13.06
2018-11-13T14:08:35.931Z,13.00
2018-11-13T14:11:05.982Z,12.94
2018-11-13T14:13:35.741Z,12.95
2018-11-13T14:16:05.692Z,13.07
2018-11-13T14:18:35.828Z,13.04
2018-11-13T14:21:05.947Z,13.03
2018-11-13T14:23:35.759Z,12.78
2018-11-13T14:26:05.841Z,12.59
2018-11-13T14:28:37.076Z,12.53
2018-11-13T14:31:07.252Z,12.59
2018-11-13T14:33:37.143Z,12.70
2018-11-13T14:36:08.165Z,12.85
2018-11-13T14:38:37.975Z,12.91
2018-11-13T14:41:07.896Z,13.05
2018-11-13T14:43:38.016Z,12.97
2018-11-13T14:46:08.028Z,12.98
2018-11-13T14:48:37.813Z,12.95
2018-11-13T14:51:07.937Z,12.81
2018-11-13T14:53:37.885Z,12.76
2018-11-13T14:56:07.759Z,12.65
2018-11-13T14:58:37.776Z,12.47
2018-11-13T15:01:07.717Z,12.38
2018-11-13T15:03:37.585Z,12.28
2018-11-13T15:06:07.440Z,12.18
2018-11-13T15:08:37.461Z,12.12
2018-11-13T15:11:07.356Z,12.11
2018-11-13T15:13:37.532Z,11.89
2018-11-13T15:16:07.311Z,11.64
2018-11-13T15:18:37.118Z,11.35
2018-11-13T15:21:07.008Z,11.43
2018-11-13T15:23:36.831Z,11.43
2018-11-13T15:26:07.076Z,11.32
2018-11-13T15:28:37.265Z,11.12
2018-11-13T15:31:07.172Z,11.09
2018-11-13T15:33:37.028Z,11.03
2018-11-13T15:36:16.756Z,10.98
2018-11-13T15:38:46.693Z,10.76
2018-11-13T15:44:29.245Z,10.41
2018-11-13T15:46:59.942Z,10.20
2018-11-13T15:49:30.683Z,10.04
2018-11-13T15:52:22.367Z,10.00
2018-11-13T15:54:55.584Z,10.07
2018-11-13T15:57:27.120Z,10.07
2018-11-13T16:02:39.577Z,9.76
2018-11-13T16:05:51.768Z,9.60
2018-11-13T16:11:07.658Z,9.32
2018-11-13T16:13:39.033Z,9.43
2018-11-13T16:16:09.363Z,9.21
2018-11-13T16:18:53.694Z,9.24
2018-11-13T16:21:25.261Z,9.31
2018-11-13T16:29:43.269Z,9.19
2018-11-13T16:32:13.172Z,9.19
2018-11-13T16:34:43.071Z,9.13
2018-11-13T16:37:12.891Z,9.06
2018-11-13T16:39:43.046Z,9.03
2018-11-13T16:42:13.078Z,8.95
2018-11-13T16:44:42.933Z,8.77
2018-11-13T16:47:13.048Z,8.68
2018-11-13T16:49:43.667Z,8.68
2018-11-13T16:52:13.489Z,8.57
2018-11-13T16:54:50.355Z,8.59
2018-11-13T16:57:22.408Z,8.58
2018-11-13T16:59:51.230Z,8.56
2018-11-13T17:02:23.743Z,8.51
2018-11-13T17:04:54.237Z,8.46
2018-11-13T17:07:24.356Z,8.46
2018-11-13T17:09:54.235Z,8.45
2018-11-13T17:12:24.076Z,8.35
2018-11-13T17:14:53.961Z,8.29
2018-11-13T17:17:24.281Z,8.31
2018-11-13T17:19:54.124Z,8.34
2018-11-13T17:22:24.057Z,8.32
2018-11-13T17:24:53.896Z,8.34
2018-11-13T17:27:24.188Z,8.32
2018-11-13T17:29:54.041Z,8.40
2018-11-13T17:32:25.498Z,8.41
2018-11-13T17:34:56.646Z,8.40
2018-11-13T17:37:27.548Z,8.33
2018-11-13T17:39:56.887Z,8.26
2018-11-13T17:42:26.841Z,8.19
2018-11-13T17:44:57.678Z,8.13
2018-11-13T17:47:27.907Z,8.17
2018-11-13T17:49:57.767Z,8.10
2018-11-13T17:52:29.125Z,8.07
2018-11-13T17:54:59.519Z,8.01
2018-11-13T17:57:29.403Z,7.94
2018-11-13T17:59:59.542Z,7.96
2018-11-13T18:02:29.428Z,7.98
2018-11-13T18:05:04.695Z,7.96
2018-11-13T18:07:50.266Z,7.89
2018-11-13T18:10:20.463Z,7.88
2018-11-13T18:15:50.503Z,7.78
2018-11-13T18:18:21.686Z,7.72
2018-11-13T18:20:55.451Z,7.67
2018-11-13T18:23:28.938Z,7.65
2018-11-13T18:26:08.458Z,7.57
2018-11-13T18:28:42.391Z,7.55
2018-11-13T18:31:13.111Z,7.64
2018-11-13T18:33:43.176Z,7.68
2018-11-13T18:36:13.303Z,7.73
2018-11-13T18:38:46.559Z,7.64
2018-11-13T18:41:19.396Z,7.53
2018-11-13T18:43:53.177Z,7.45
2018-11-13T18:46:27.219Z,7.37
2018-11-13T18:49:03.097Z,7.35
2018-11-13T18:51:36.623Z,7.35
2018-11-13T18:54:08.910Z,7.32
2018-11-13T18:56:43.860Z,7.31
2018-11-13T18:59:18.922Z,7.34
2018-11-13T19:01:52.235Z,7.29
2018-11-13T19:04:44.840Z,7.23
2018-11-13T19:07:14.733Z,7.13
2018-11-13T19:09:45.225Z,7.11
2018-11-13T19:15:45.520Z,7.05
2018-11-13T19:18:17.556Z,6.99
2018-11-13T19:20:48.825Z,6.94
2018-11-13T19:23:20.330Z,6.87
2018-11-13T19:25:51.890Z,6.83
2018-11-13T19:31:15.339Z,6.82
2018-11-13T19:33:48.590Z,6.72
2018-11-13T19:36:18.670Z,6.72
2018-11-13T19:38:49.319Z,6.71
2018-11-13T19:41:21.102Z,6.69
2018-11-13T19:43:51.177Z,6.64
2018-11-13T19:46:21.980Z,6.60
2018-11-13T19:48:52.348Z,6.58
2018-11-13T19:51:22.471Z,6.59
2018-11-13T19:53:52.459Z,6.60
2018-11-13T19:56:24.612Z,6.57
2018-11-13T19:58:54.606Z,6.60
2018-11-13T20:01:24.949Z,6.60
2018-11-13T20:03:56.339Z,6.47
2018-11-13T20:06:27.258Z,6.40
2018-11-13T20:08:57.275Z,6.39
2018-11-13T20:11:33.689Z,6.41
2018-11-13T20:14:03.758Z,6.46
2018-11-13T20:16:35.721Z,6.36
2018-11-13T20:19:06.625Z,6.31
2018-11-13T20:21:37.102Z,6.37
2018-11-13T20:24:12.537Z,6.34
2018-11-13T20:26:43.113Z,6.33
2018-11-13T20:29:20.913Z,6.35
2018-11-13T20:31:52.117Z,6.28
2018-11-13T20:34:22.283Z,6.30
2018-11-13T20:36:53.784Z,6.29
2018-11-13T20:42:21.836Z,6.20
2018-11-13T20:45:55.174Z,6.04
2018-11-13T20:48:26.268Z,6.05
2018-11-13T20:50:56.430Z,5.98
2018-11-13T20:53:27.324Z,5.98
2018-11-13T20:55:57.916Z,5.95
2018-11-13T20:58:28.147Z,5.96
2018-11-13T21:00:59.364Z,5.88
2018-11-13T21:03:29.303Z,5.87
2018-11-13T21:05:59.921Z,5.84
2018-11-13T21:08:30.131Z,5.80
2018-11-13T21:11:10.742Z,5.77
2018-11-13T21:13:41.541Z,5.72
2018-11-13T21:16:12.940Z,5.84
2018-11-13T21:18:44.659Z,5.82
2018-11-13T21:21:15.312Z,5.75
2018-11-13T21:23:45.266Z,5.75
2018-11-13T21:26:16.325Z,5.70
2018-11-13T21:28:47.531Z,5.64
2018-11-13T21:31:18.035Z,5.57
2018-11-13T21:33:47.873Z,5.57
2018-11-13T21:36:17.810Z,5.53
2018-11-13T21:38:47.729Z,5.46
2018-11-13T21:41:17.656Z,5.46
2018-11-13T21:43:48.291Z,5.46
2018-11-13T21:46:18.351Z,5.46
2018-11-13T21:48:48.218Z,5.38
2018-11-13T21:51:18.219Z,5.36
2018-11-13T21:53:48.068Z,5.37
2018-11-13T21:56:17.940Z,5.37
2018-11-13T21:58:49.449Z,5.33
2018-11-13T22:01:19.426Z,5.26
2018-11-13T22:03:49.509Z,5.21
2018-11-13T22:06:19.382Z,5.22
2018-11-13T22:08:49.231Z,5.16
2018-11-13T22:11:19.292Z,5.10
2018-11-13T22:13:49.831Z,5.11
2018-11-13T22:16:19.691Z,5.14
2018-11-13T22:18:49.627Z,5.12
2018-11-13T22:21:19.610Z,5.10
2018-11-13T22:23:50.113Z,5.06
2018-11-13T22:26:21.593Z,4.96
2018-11-13T22:28:53.365Z,5.06
2018-11-13T22:31:22.854Z,5.00
2018-11-13T22:33:52.704Z,5.00
2018-11-13T22:36:22.939Z,4.95
2018-11-13T22:38:53.603Z,4.99
2018-11-13T22:41:23.908Z,4.88
2018-11-13T22:46:40.671Z,4.86
2018-11-13T22:49:10.803Z,4.86
2018-11-13T22:51:40.949Z,4.75
2018-11-13T22:54:10.798Z,4.80
2018-11-13T22:56:59.016Z,4.85
2018-11-13T22:59:28.944Z,4.79
2018-11-13T23:01:59.010Z,4.72
2018-11-13T23:04:29.159Z,4.67
2018-11-13T23:06:58.979Z,4.69
2018-11-13T23:09:28.792Z,4.82
2018-11-13T23:11:58.955Z,4.91
2018-11-13T23:14:37.203Z,4.88
2018-11-13T23:17:07.321Z,4.89
2018-11-13T23:19:37.741Z,4.85
2018-11-13T23:22:07.629Z,4.73
2018-11-13T23:24:37.476Z,4.66
2018-11-13T23:27:07.553Z,4.55
2018-11-13T23:29:37.757Z,4.47
2018-11-13T23:32:07.756Z,4.48
2018-11-13T23:34:37.594Z,4.52
2018-11-13T23:37:07.481Z,4.51
2018-11-13T23:39:38.274Z,4.45
2018-11-13T23:42:08.252Z,4.55
2018-11-13T23:44:38.489Z,4.58
2018-11-13T23:47:08.403Z,4.57
2018-11-13T23:49:38.277Z,4.60
2018-11-13T23:52:08.112Z,4.51
2018-11-13T23:54:37.872Z,4.46
2018-11-13T23:57:07.685Z,4.39
2018-11-13T23:59:37.939Z,4.43
